createdAt,value
2023-02-17T00:00:55.271Z,101973.16
2023-02-17T00:03:23.722Z,101960.56
2023-02-17T00:05:52.929Z,101964.09
2023-02-17T00:08:20.774Z,101959.94
2023-02-17T00:10:59.324Z,101961.59
2023-02-17T00:13:27.760Z,101964.91
2023-02-17T00:15:55.814Z,101961.41
2023-02-17T00:18:23.651Z,101960.56
2023-02-17T00:20:53.095Z,101959.72
2023-02-17T00:23:20.859Z,101952.50
2023-02-17T00:25:48.568Z,101953.31
2023-02-17T00:28:16.294Z,101957.03
2023-02-17T00:30:44.059Z,101955.00
2023-02-17T00:33:11.743Z,101951.28
2023-02-17T00:35:41.658Z,101941.75
2023-02-17T00:38:10.787Z,101942.38
2023-02-17T00:40:38.958Z,101944.25
2023-02-17T00:43:07.156Z,101944.44
2023-02-17T00:45:35.125Z,101935.09
2023-02-17T00:48:02.866Z,101930.16
2023-02-17T00:50:30.672Z,101924.78
2023-02-17T00:52:58.428Z,101924.78
2023-02-17T00:55:27.694Z,101924.59
2023-02-17T00:57:55.423Z,101922.09
2023-02-17T01:00:23.673Z,101915.88
2023-02-17T01:02:51.428Z,101919.41
2023-02-17T01:05:19.271Z,101917.75
2023-02-17T01:07:47.025Z,101915.88
2023-02-17T01:10:15.160Z,101926.44
2023-02-17T01:12:44.248Z,101914.03
2023-02-17T01:15:12.170Z,101913.41
2023-02-17T01:17:39.967Z,101917.75
2023-02-17T01:20:09.024Z,101918.56
2023-02-17T01:22:36.936Z,101917.56
2023-02-17T01:25:04.886Z,101921.06
2023-02-17T01:27:32.692Z,101916.53
2023-02-17T01:30:01.862Z,101924.41
2023-02-17T01:32:29.590Z,101916.53
2023-02-17T01:34:57.285Z,101922.72
2023-02-17T01:37:25.031Z,101917.56
2023-02-17T01:39:52.724Z,101915.69
2023-02-17T01:42:21.638Z,101925.41
2023-02-17T01:45:29.138Z,101925.41
2023-02-17T01:48:00.871Z,101922.72
2023-02-17T01:50:32.789Z,101919.22
2023-02-17T01:53:02.712Z,101921.91
2023-02-17T01:55:31.396Z,101916.53
2023-02-17T01:58:02.234Z,101917.34
2023-02-17T02:00:33.682Z,101913.84
2023-02-17T02:03:03.030Z,101919.22
2023-02-17T02:05:31.617Z,101923.75
2023-02-17T02:07:59.436Z,101927.91
2023-02-17T02:10:27.220Z,101933.47
2023-02-17T02:12:54.948Z,101932.66
2023-02-17T02:15:26.037Z,101922.94
2023-02-17T02:18:09.761Z,101909.50
2023-02-17T02:21:04.635Z,101911.16
2023-02-17T02:23:53.931Z,101917.56
2023-02-17T02:26:50.961Z,101908.66
2023-02-17T02:29:46.790Z,101904.31
2023-02-17T02:32:49.689Z,101915.06
2023-02-17T02:35:22.011Z,101915.06
2023-02-17T02:37:54.468Z,101911.53
2023-02-17T02:40:27.360Z,101902.44
2023-02-17T02:42:57.157Z,101887.53
2023-02-17T02:45:24.934Z,101879.28
2023-02-17T02:47:55.856Z,101877.63
2023-02-17T02:50:37.221Z,101875.97
2023-02-17T02:53:25.913Z,101863.34
2023-02-17T02:55:58.819Z,101863.34
2023-02-17T02:58:36.982Z,101863.34
2023-02-17T03:01:14.278Z,101843.03
2023-02-17T03:03:49.863Z,101840.19
2023-02-17T03:06:26.357Z,101841.84
2023-02-17T03:08:58.801Z,101840.19
2023-02-17T03:11:33.234Z,101831.28
2023-02-17T03:14:02.605Z,101831.50
2023-02-17T03:16:30.608Z,101824.25
2023-02-17T03:18:59.684Z,101818.88
2023-02-17T03:21:34.579Z,101818.69
2023-02-17T03:24:02.292Z,101831.09
2023-02-17T03:26:29.976Z,101822.19
2023-02-17T03:28:57.657Z,101823.22
2023-02-17T03:31:25.475Z,101845.56
2023-02-17T03:33:53.268Z,101843.06
2023-02-17T03:36:22.375Z,101843.91
2023-02-17T03:38:50.198Z,101835.84
2023-02-17T03:41:17.954Z,101836.88
2023-02-17T03:43:45.664Z,101844.72
2023-02-17T03:46:14.398Z,101836.66
2023-02-17T03:48:42.368Z,101832.31
2023-02-17T03:51:14.865Z,101836.88
2023-02-17T03:53:44.714Z,101830.47
2023-02-17T03:56:13.307Z,101826.13
2023-02-17T03:58:41.752Z,101825.91
2023-02-17T04:01:12.281Z,101814.34
2023-02-17T04:03:40.953Z,101825.09
2023-02-17T04:06:09.655Z,101830.47
2023-02-17T04:08:37.696Z,101837.69
2023-02-17T04:11:09.732Z,101831.69
2023-02-17T04:13:37.808Z,101842.25
2023-02-17T04:16:06.986Z,101835.22
2023-02-17T04:18:35.201Z,101833.34
2023-02-17T04:21:03.351Z,101829.84
2023-02-17T04:23:31.056Z,101839.75
2023-02-17T04:25:58.795Z,101840.59
2023-02-17T04:28:28.077Z,101838.91
2023-02-17T04:30:55.849Z,101838.72
2023-02-17T04:33:23.592Z,101839.56
2023-02-17T04:35:51.337Z,101842.44
2023-02-17T04:38:19.102Z,101851.34
2023-02-17T04:40:46.819Z,101841.63
2023-02-17T04:43:14.468Z,101840.78
2023-02-17T04:45:43.589Z,101843.47
2023-02-17T04:48:11.395Z,101841.63
2023-02-17T04:50:39.176Z,101847.81
2023-02-17T04:53:06.931Z,101852.38
2023-02-17T04:55:34.748Z,101848.84
2023-02-17T04:58:02.551Z,101846.97
2023-02-17T05:00:30.577Z,101845.13
2023-02-17T05:02:59.660Z,101850.75
2023-02-17T05:05:27.370Z,101835.00
2023-02-17T05:07:55.116Z,101841.41
2023-02-17T05:10:24.125Z,101839.56
2023-02-17T05:12:52.324Z,101835.00
2023-02-17T05:15:20.290Z,101827.16
2023-02-17T05:17:47.952Z,101827.16
2023-02-17T05:20:17.075Z,101830.47
2023-02-17T05:22:44.798Z,101810.00
2023-02-17T05:25:12.507Z,101822.59
2023-02-17T05:27:40.248Z,101820.75
2023-02-17T05:30:08.890Z,101823.44
2023-02-17T05:32:36.596Z,101818.88
2023-02-17T05:35:04.435Z,101824.25
2023-02-17T05:37:33.443Z,101821.38
2023-02-17T05:40:01.151Z,101820.53
2023-02-17T05:42:29.041Z,101815.38
2023-02-17T05:44:57.035Z,101821.97
2023-02-17T05:47:27.290Z,101827.97
2023-02-17T05:49:55.287Z,101845.75
2023-02-17T05:52:23.067Z,101836.03
2023-02-17T05:54:52.142Z,101848.66
2023-02-17T05:57:20.041Z,101841.63
2023-02-17T05:59:47.793Z,101836.25
2023-02-17T06:02:15.480Z,101831.69
2023-02-17T06:04:43.227Z,101841.63
2023-02-17T06:07:11.102Z,101830.03
2023-02-17T06:09:38.878Z,101835.41
2023-02-17T06:12:08.185Z,101842.44
2023-02-17T06:14:35.952Z,101825.47
2023-02-17T06:17:04.384Z,101826.31
2023-02-17T06:19:32.093Z,101838.91
2023-02-17T06:21:59.826Z,101829.00
2023-02-17T06:24:27.601Z,101832.31
2023-02-17T06:26:55.324Z,101823.44
2023-02-17T06:29:24.477Z,101833.16
2023-02-17T06:31:52.269Z,101829.25
2023-02-17T06:34:20.044Z,101823.03
2023-02-17T06:36:47.839Z,101817.66
2023-02-17T06:39:15.587Z,101821.41
2023-02-17T06:41:43.408Z,101822.63
2023-02-17T06:44:11.142Z,101822.84
2023-02-17T06:46:40.361Z,101826.16
2023-02-17T06:49:08.092Z,101818.72
2023-02-17T06:51:35.883Z,101819.31
2023-02-17T06:54:03.668Z,101811.72
2023-02-17T06:56:31.542Z,101811.88
2023-02-17T06:58:59.279Z,101804.84
2023-02-17T07:01:27.902Z,101807.75
2023-02-17T07:03:57.476Z,101802.34
2023-02-17T07:06:26.416Z,101807.75
2023-02-17T07:08:54.778Z,101808.75
2023-02-17T07:11:22.661Z,101819.94
2023-02-17T07:13:50.429Z,101829.88
2023-02-17T07:16:18.271Z,101824.31
2023-02-17T07:18:46.143Z,101828.50
2023-02-17T07:21:15.252Z,101836.72
2023-02-17T07:23:43.002Z,101837.09
2023-02-17T07:26:12.427Z,101837.94
2023-02-17T07:28:41.660Z,101836.28
2023-02-17T07:31:11.077Z,101830.50
2023-02-17T07:33:40.308Z,101832.38
2023-02-17T07:36:08.930Z,101827.81
2023-02-17T07:38:38.985Z,101816.66
2023-02-17T07:41:07.855Z,101811.06
2023-02-17T07:43:35.987Z,101814.22
2023-02-17T07:46:03.973Z,101823.72
2023-02-17T07:48:32.147Z,101818.09
2023-02-17T07:51:05.795Z,101827.38
2023-02-17T07:53:33.977Z,101819.72
2023-02-17T07:56:05.682Z,101812.47
2023-02-17T07:58:34.152Z,101811.25
2023-02-17T08:01:06.828Z,101819.75
2023-02-17T08:03:34.895Z,101801.59
2023-02-17T08:06:02.617Z,101816.69
2023-02-17T08:08:50.275Z,101825.16
2023-02-17T08:11:33.263Z,101823.75
2023-02-17T08:14:01.308Z,101816.06
2023-02-17T08:16:29.368Z,101825.38
2023-02-17T08:18:57.756Z,101835.28
2023-02-17T08:21:27.334Z,101832.78
2023-02-17T08:23:55.230Z,101835.31
2023-02-17T08:26:24.567Z,101837.78
2023-02-17T08:28:52.373Z,101830.75
2023-02-17T08:31:23.488Z,101817.91
2023-02-17T08:33:52.100Z,101818.72
2023-02-17T08:36:23.148Z,101823.06
2023-02-17T08:38:51.390Z,101823.06
2023-02-17T08:41:22.269Z,101837.34
2023-02-17T08:43:51.966Z,101843.34
2023-02-17T08:46:20.659Z,101846.03
2023-02-17T08:48:48.454Z,101838.81
2023-02-17T08:51:18.678Z,101842.31
2023-02-17T08:53:46.936Z,101851.41
2023-02-17T08:56:14.688Z,101835.72
2023-02-17T08:58:42.393Z,101853.31
2023-02-17T09:01:12.255Z,101843.81
2023-02-17T09:03:41.698Z,101837.41
2023-02-17T09:06:09.892Z,101831.00
2023-02-17T09:08:39.306Z,101829.16
2023-02-17T09:11:09.417Z,101831.84
2023-02-17T09:13:38.082Z,101836.38
2023-02-17T09:16:06.907Z,101842.41
2023-02-17T09:18:36.291Z,101852.13
2023-02-17T09:21:07.518Z,101858.34
2023-02-17T09:23:35.426Z,101864.75
2023-02-17T09:26:05.909Z,101871.78
2023-02-17T09:28:35.061Z,101871.78
2023-02-17T09:31:10.240Z,101870.75
2023-02-17T09:33:40.037Z,101887.72
2023-02-17T09:36:09.604Z,101889.38
2023-02-17T09:38:39.871Z,101872.00
2023-02-17T09:41:17.063Z,101890.66
2023-02-17T09:43:45.204Z,101870.34
2023-02-17T09:46:18.044Z,101889.44
2023-02-17T09:48:49.175Z,101889.25
2023-02-17T09:51:24.348Z,101863.66
2023-02-17T09:54:01.593Z,101872.22
2023-02-17T09:56:35.190Z,101888.44
2023-02-17T09:59:07.759Z,101897.81
2023-02-17T10:01:36.737Z,101883.16
2023-02-17T10:04:11.514Z,101891.06
2023-02-17T10:06:42.310Z,101885.69
2023-02-17T10:09:16.557Z,101889.41
2023-02-17T10:11:51.769Z,101904.75
2023-02-17T10:14:25.824Z,101895.63
2023-02-17T10:16:58.438Z,101886.06
2023-02-17T10:19:31.632Z,101898.09
2023-02-17T10:22:06.787Z,101897.47
2023-02-17T10:24:34.519Z,101887.91
2023-02-17T10:27:17.033Z,101896.41
2023-02-17T10:29:56.966Z,101893.75
2023-02-17T10:32:26.732Z,101900.59
2023-02-17T10:35:13.050Z,101895.63
2023-02-17T10:37:47.333Z,101901.03
2023-02-17T10:40:20.479Z,101898.75
2023-02-17T10:42:50.506Z,101898.94
2023-02-17T10:45:27.399Z,101912.59
2023-02-17T10:47:59.142Z,101891.66
2023-02-17T10:50:28.274Z,101903.03
2023-02-17T10:52:57.348Z,101899.28
2023-02-17T10:55:34.836Z,101903.41
2023-02-17T10:58:07.921Z,101904.84
2023-02-17T11:00:35.707Z,101901.72
2023-02-17T11:03:03.465Z,101904.63
2023-02-17T11:05:34.684Z,101902.34
2023-02-17T11:08:06.864Z,101911.47
2023-02-17T11:10:37.314Z,101913.53
2023-02-17T11:13:20.151Z,101910.41
2023-02-17T11:15:48.748Z,101918.69
2023-02-17T11:18:22.716Z,101908.94
2023-02-17T11:21:01.321Z,101894.03
2023-02-17T11:23:29.405Z,101888.03
2023-02-17T11:26:11.498Z,101890.50
2023-02-17T11:28:39.193Z,101898.78
2023-02-17T11:31:07.471Z,101894.44
2023-02-17T11:33:37.769Z,101879.94
2023-02-17T11:36:10.601Z,101882.84
2023-02-17T11:38:45.244Z,101878.09
2023-02-17T11:41:13.123Z,101866.69
2023-02-17T11:43:51.670Z,101869.59
2023-02-17T11:46:28.590Z,101860.47
2023-02-17T11:49:31.734Z,101856.97
2023-02-17T11:52:13.026Z,101864.19
2023-02-17T11:54:54.924Z,101865.84
2023-02-17T11:57:37.975Z,101870.00
2023-02-17T12:00:16.957Z,101863.59
2023-02-17T12:03:14.120Z,101870.03
2023-02-17T12:05:57.249Z,101865.69
2023-02-17T12:08:39.349Z,101871.28
2023-02-17T12:11:16.924Z,101879.84
2023-02-17T12:14:09.326Z,101868.47
2023-02-17T12:16:49.334Z,101863.31
2023-02-17T12:19:46.733Z,101868.47
2023-02-17T12:22:19.737Z,101868.47
2023-02-17T12:25:15.962Z,101871.38
2023-02-17T12:27:55.091Z,101870.94
2023-02-17T12:30:32.957Z,101869.47
2023-02-17T12:33:25.777Z,101858.22
2023-02-17T12:35:56.171Z,101868.59
2023-02-17T12:38:30.622Z,101878.97
2023-02-17T12:41:07.874Z,101870.28
2023-02-17T12:43:42.142Z,101880.06
2023-02-17T12:46:13.639Z,101891.47
2023-02-17T12:48:46.897Z,101907.22
2023-02-17T12:51:22.095Z,101894.78
2023-02-17T12:53:54.776Z,101905.78
2023-02-17T12:56:40.979Z,101903.50
2023-02-17T12:59:15.174Z,101894.16
2023-02-17T13:01:54.078Z,101889.22
2023-02-17T13:04:26.236Z,101896.06
2023-02-17T13:07:02.481Z,101893.38
2023-02-17T13:09:35.938Z,101907.88
2023-02-17T13:12:27.538Z,101896.66
2023-02-17T13:14:56.674Z,101919.47
2023-02-17T13:17:27.312Z,101920.91
2023-02-17T13:20:05.862Z,101926.72
2023-02-17T13:22:33.618Z,101926.72
2023-02-17T13:25:01.336Z,101925.25
2023-02-17T13:27:36.424Z,101925.47
2023-02-17T13:30:09.468Z,101930.22
2023-02-17T13:32:39.096Z,101948.47
2023-02-17T13:35:08.816Z,101945.78
2023-02-17T13:37:43.103Z,101941.63
2023-02-17T13:40:43.641Z,101953.03
2023-02-17T13:43:17.037Z,101959.66
2023-02-17T13:45:48.239Z,101959.66
2023-02-17T13:48:25.100Z,101973.94
2023-02-17T13:50:53.715Z,101971.44
2023-02-17T13:53:25.661Z,101972.09
2023-02-17T13:55:53.959Z,101971.44
2023-02-17T13:58:30.874Z,101965.25
2023-02-17T14:01:00.265Z,101972.09
2023-02-17T14:03:30.615Z,101973.78
2023-02-17T14:06:00.291Z,101996.19
2023-02-17T14:08:35.105Z,101998.28
2023-02-17T14:11:10.231Z,101988.75
2023-02-17T14:13:41.467Z,101983.97
2023-02-17T14:16:26.860Z,101977.91
2023-02-17T14:19:05.029Z,101977.50
2023-02-17T14:21:33.270Z,101990.38
2023-02-17T14:24:02.387Z,101997.44
2023-02-17T14:26:33.401Z,102013.41
2023-02-17T14:29:05.054Z,102010.72
2023-02-17T14:31:38.974Z,102012.59
2023-02-17T14:34:07.489Z,102023.41
2023-02-17T14:36:37.573Z,102010.13
2023-02-17T14:39:08.441Z,102011.56
2023-02-17T14:41:36.294Z,102006.78
2023-02-17T14:44:06.076Z,102002.44
2023-02-17T14:46:34.414Z,101990.59
2023-02-17T14:49:02.870Z,101991.63
2023-02-17T14:51:35.025Z,102001.16
2023-02-17T14:54:03.414Z,102008.63
2023-02-17T14:56:34.985Z,101993.69
2023-02-17T14:59:02.805Z,101995.34
2023-02-17T15:01:32.093Z,101997.22
2023-02-17T15:04:00.058Z,102010.25
2023-02-17T15:06:32.628Z,102014.19
2023-02-17T15:09:02.283Z,102025.19
2023-02-17T15:11:34.466Z,102015.22
2023-02-17T15:14:03.616Z,102004.25
2023-02-17T15:16:32.952Z,102013.78
2023-02-17T15:19:00.714Z,102003.22
2023-02-17T15:21:30.229Z,102002.41
2023-02-17T15:24:00.215Z,102015.25
2023-02-17T15:26:28.701Z,102024.38
2023-02-17T15:28:57.098Z,102021.88
2023-02-17T15:31:25.656Z,102017.53
2023-02-17T15:33:57.756Z,102004.47
2023-02-17T15:36:26.412Z,102011.94
2023-02-17T15:38:54.567Z,102012.56
2023-02-17T15:41:25.457Z,102013.16
2023-02-17T15:43:54.582Z,101994.06
2023-02-17T15:46:27.289Z,102040.09
2023-02-17T15:48:56.393Z,102037.22
2023-02-17T15:51:24.820Z,102033.69
2023-02-17T15:53:52.803Z,102040.09
2023-02-17T15:56:23.241Z,102023.94
2023-02-17T15:58:51.967Z,102028.09
2023-02-17T16:01:28.032Z,102047.34
2023-02-17T16:03:57.702Z,102052.13
2023-02-17T16:06:25.790Z,102042.56
2023-02-17T16:08:53.683Z,102036.34
2023-02-17T16:11:22.539Z,102041.75
2023-02-17T16:13:50.977Z,102046.50
2023-02-17T16:16:20.696Z,102052.72
2023-02-17T16:18:49.334Z,102056.25
2023-02-17T16:21:19.327Z,102063.50
2023-02-17T16:23:47.287Z,102069.72
2023-02-17T16:26:23.206Z,102085.88
2023-02-17T16:28:50.929Z,102074.91
2023-02-17T16:31:18.849Z,102071.38
2023-02-17T16:33:46.658Z,102077.59
2023-02-17T16:36:16.645Z,102080.28
2023-02-17T16:38:46.970Z,102083.19
2023-02-17T16:41:15.608Z,102088.38
2023-02-17T16:43:43.791Z,102089.41
2023-02-17T16:46:20.951Z,102098.31
2023-02-17T16:48:48.692Z,102102.69
2023-02-17T16:51:16.471Z,102099.34
2023-02-17T16:53:45.551Z,102109.94
2023-02-17T16:56:19.515Z,102114.50
2023-02-17T16:58:47.254Z,102111.59
2023-02-17T17:01:15.059Z,102114.50
2023-02-17T17:03:43.852Z,102125.28
2023-02-17T17:06:20.511Z,102118.03
2023-02-17T17:08:50.049Z,102123.59
2023-02-17T17:11:23.092Z,102112.78
2023-02-17T17:13:51.324Z,102130.84
2023-02-17T17:16:22.560Z,102138.09
2023-02-17T17:18:50.449Z,102141.84
2023-02-17T17:21:19.667Z,102145.56
2023-02-17T17:23:50.659Z,102142.88
2023-02-17T17:26:25.618Z,102150.13
2023-02-17T17:28:53.676Z,102158.41
2023-02-17T17:31:22.943Z,102163.78
2023-02-17T17:33:51.618Z,102166.28
2023-02-17T17:36:24.652Z,102168.97
2023-02-17T17:38:55.225Z,102169.81
2023-02-17T17:41:24.392Z,102168.97
2023-02-17T17:43:52.411Z,102164.41
2023-02-17T17:46:22.531Z,102176.22
2023-02-17T17:48:50.425Z,102163.34
2023-02-17T17:51:20.603Z,102162.75
2023-02-17T17:53:48.606Z,102172.50
2023-02-17T17:56:20.876Z,102175.19
2023-02-17T17:58:48.883Z,102176.03
2023-02-17T18:01:17.360Z,102177.88
2023-02-17T18:03:45.113Z,102188.66
2023-02-17T18:06:17.338Z,102188.88
2023-02-17T18:08:46.253Z,102181.81
2023-02-17T18:11:15.152Z,102185.34
2023-02-17T18:13:45.871Z,102196.94
2023-02-17T18:16:13.956Z,102202.34
2023-02-17T18:18:42.085Z,102207.72
2023-02-17T18:21:09.939Z,102213.94
2023-02-17T18:23:37.660Z,102209.59
2023-02-17T18:26:06.007Z,102210.41
2023-02-17T18:28:34.622Z,102197.97
2023-02-17T18:31:08.915Z,102211.44
2023-02-17T18:33:36.775Z,102209.78
2023-02-17T18:36:08.543Z,102210.63
2023-02-17T18:38:36.872Z,102213.31
2023-02-17T18:41:04.890Z,102218.94
2023-02-17T18:43:32.800Z,102217.34
2023-02-17T18:46:01.138Z,102210.34
2023-02-17T18:48:30.275Z,102218.94
2023-02-17T18:50:58.026Z,102226.69
2023-02-17T18:53:25.979Z,102237.13
2023-02-17T18:55:53.684Z,102221.81
2023-02-17T18:58:21.388Z,102233.47
2023-02-17T19:00:49.118Z,102228.50
2023-02-17T19:03:16.839Z,102237.63
2023-02-17T19:05:45.963Z,102244.25
2023-02-17T19:08:14.181Z,102246.72
2023-02-17T19:10:41.999Z,102249.38
2023-02-17T19:13:09.729Z,102265.09
2023-02-17T19:15:38.039Z,102255.31
2023-02-17T19:18:06.254Z,102247.19
2023-02-17T19:20:34.469Z,102243.41
2023-02-17T19:23:04.022Z,102245.06
2023-02-17T19:25:31.762Z,102250.66
2023-02-17T19:27:59.618Z,102258.50
2023-02-17T19:30:27.340Z,102265.31
2023-02-17T19:32:55.231Z,102257.63
2023-02-17T19:35:23.001Z,102257.41
2023-02-17T19:37:50.663Z,102260.91
2023-02-17T19:40:20.272Z,102257.59
2023-02-17T19:42:48.021Z,102260.47
2023-02-17T19:45:15.915Z,102254.47
2023-02-17T19:47:43.615Z,102253.03
2023-02-17T19:50:11.522Z,102244.09
2023-02-17T19:52:39.483Z,102249.69
2023-02-17T19:55:09.719Z,102256.94
2023-02-17T19:57:38.881Z,102259.63
2023-02-17T20:00:09.923Z,102259.63
2023-02-17T20:02:38.233Z,102261.69
2023-02-17T20:05:06.332Z,102259.19
2023-02-17T20:07:34.102Z,102265.63
2023-02-17T20:10:01.806Z,102263.94
2023-02-17T20:12:29.556Z,102270.19
2023-02-17T20:14:58.919Z,102267.69
2023-02-17T20:17:26.638Z,102272.44
2023-02-17T20:19:54.444Z,102282.38
2023-02-17T20:22:22.235Z,102273.03
2023-02-17T20:24:50.022Z,102279.88
2023-02-17T20:27:17.784Z,102277.19
2023-02-17T20:29:45.542Z,102285.47
2023-02-17T20:32:14.798Z,102281.94
2023-02-17T20:34:42.825Z,102280.28
2023-02-17T20:37:11.212Z,102274.25
2023-02-17T20:39:40.170Z,102272.97
2023-02-17T20:42:07.928Z,102276.94
2023-02-17T20:44:36.236Z,102278.16
2023-02-17T20:47:04.477Z,102272.78
2023-02-17T20:49:33.619Z,102277.13
2023-02-17T20:52:01.299Z,102280.66
2023-02-17T20:54:29.050Z,102278.16
2023-02-17T20:56:59.209Z,102283.75
2023-02-17T20:59:27.156Z,102278.34
2023-02-17T21:01:55.053Z,102285.59
2023-02-17T21:04:22.805Z,102297.41
2023-02-17T21:06:51.920Z,102283.09
2023-02-17T21:09:20.223Z,102294.91
2023-02-17T21:11:48.863Z,102291.38
2023-02-17T21:14:16.658Z,102286.84
2023-02-17T21:16:44.974Z,102288.88
2023-02-17T21:19:12.966Z,102289.72
2023-02-17T21:21:40.959Z,102288.69
2023-02-17T21:24:10.203Z,102285.16
2023-02-17T21:26:38.028Z,102287.84
2023-02-17T21:29:05.949Z,102281.63
2023-02-17T21:31:34.114Z,102284.53
2023-02-17T21:34:01.944Z,102288.06
2023-02-17T21:36:29.773Z,102288.06
2023-02-17T21:38:57.948Z,102290.75
2023-02-17T21:41:30.257Z,102293.44
2023-02-17T21:44:15.927Z,102287.03
2023-02-17T21:46:44.283Z,102296.13
2023-02-17T21:49:12.690Z,102294.66
2023-02-17T21:51:41.112Z,102296.97
2023-02-17T21:54:09.513Z,102292.41
2023-02-17T21:56:39.314Z,102281.63
2023-02-17T21:59:07.182Z,102276.44
2023-02-17T22:01:35.299Z,102272.72
2023-02-17T22:04:03.548Z,102272.91
2023-02-17T22:06:33.120Z,102272.91
2023-02-17T22:09:01.218Z,102277.47
2023-02-17T22:11:33.055Z,102271.25
2023-02-17T22:14:03.750Z,102279.53
2023-02-17T22:16:32.816Z,102277.66
2023-02-17T22:19:01.196Z,102267.72
2023-02-17T22:21:29.309Z,102272.28
2023-02-17T22:23:58.574Z,102276.00
2023-02-17T22:26:27.113Z,102276.84
2023-02-17T22:28:55.181Z,102278.69
2023-02-17T22:31:25.960Z,102276.00
2023-02-17T22:33:53.768Z,102279.72
2023-02-17T22:36:24.383Z,102283.25
2023-02-17T22:38:52.515Z,102278.88
2023-02-17T22:41:23.064Z,102278.88
2023-02-17T22:43:51.980Z,102279.72
2023-02-17T22:46:21.764Z,102272.28
2023-02-17T22:48:52.537Z,102263.09
2023-02-17T22:51:23.029Z,102266.69
2023-02-17T22:53:50.899Z,102272.09
2023-02-17T22:56:18.908Z,102272.72
2023-02-17T22:58:46.668Z,102269.19
2023-02-17T23:01:18.031Z,102261.94
2023-02-17T23:03:47.363Z,102259.25
2023-02-17T23:06:18.884Z,102265.47
2023-02-17T23:08:47.651Z,102265.47
2023-02-17T23:11:17.910Z,102271.88
2023-02-17T23:13:45.959Z,102264.66
2023-02-17T23:16:21.418Z,102267.78
2023-02-17T23:18:49.262Z,102269.44
2023-02-17T23:21:18.435Z,102274.63
2023-02-17T23:23:46.128Z,102271.75
2023-02-17T23:26:15.212Z,102271.75
2023-02-17T23:28:42.935Z,102274.44
2023-02-17T23:31:11.064Z,102269.88
2023-02-17T23:33:39.274Z,102260.13
2023-02-17T23:36:08.739Z,102253.28
2023-02-17T23:38:38.121Z,102253.28
2023-02-17T23:41:06.002Z,102257.84
2023-02-17T23:43:33.768Z,102262.38
2023-02-17T23:46:02.001Z,102261.56
2023-02-17T23:48:29.774Z,102253.66
2023-02-17T23:50:58.370Z,102249.94
2023-02-17T23:53:26.459Z,102233.97
2023-02-17T23:56:03.831Z,102242.06
2023-02-17T23:58:31.980Z,102238.53
